sensor_id;sensor_type;location;lat;lon;timestamp;pressure;altitude;pressure_sealevel;temperature;humidity
41706;BME280;27385;51.096;17.190;2023-05-14T00:01:29;100780.29;;;8.16;67.20
41706;BME280;27385;51.096;17.190;2023-05-14T00:04:00;100776.52;;;8.12;67.30
41706;BME280;27385;51.096;17.190;2023-05-14T00:06:31;100772.11;;;8.08;67.45
41706;BME280;27385;51.096;17.190;2023-05-14T00:09:02;100771.05;;;8.04;67.53
41706;BME280;27385;51.096;17.190;2023-05-14T00:11:33;100769.44;;;8.03;67.63
41706;BME280;27385;51.096;17.190;2023-05-14T00:14:04;100766.44;;;8.03;67.90
41706;BME280;27385;51.096;17.190;2023-05-14T00:16:35;100765.67;;;7.99;68.10
41706;BME280;27385;51.096;17.190;2023-05-14T00:19:06;100763.30;;;7.97;68.28
41706;BME280;27385;51.096;17.190;2023-05-14T00:21:37;100766.41;;;7.96;68.40
41706;BME280;27385;51.096;17.190;2023-05-14T00:24:08;100762.31;;;7.98;68.59
41706;BME280;27385;51.096;17.190;2023-05-14T00:26:39;100760.09;;;7.98;68.87
41706;BME280;27385;51.096;17.190;2023-05-14T00:29:10;100755.75;;;7.97;69.17
41706;BME280;27385;51.096;17.190;2023-05-14T00:31:41;100756.13;;;7.97;69.25
41706;BME280;27385;51.096;17.190;2023-05-14T00:34:12;100755.45;;;8.01;69.69
41706;BME280;27385;51.096;17.190;2023-05-14T00:36:43;100755.95;;;8.05;69.90
41706;BME280;27385;51.096;17.190;2023-05-14T00:39:13;100750.69;;;8.07;70.24
41706;BME280;27385;51.096;17.190;2023-05-14T00:41:44;100751.88;;;8.10;70.42
41706;BME280;27385;51.096;17.190;2023-05-14T00:44:15;100752.56;;;8.13;70.78
41706;BME280;27385;51.096;17.190;2023-05-14T00:46:46;100757.90;;;8.15;70.84
41706;BME280;27385;51.096;17.190;2023-05-14T00:49:18;100762.10;;;8.18;71.13
41706;BME280;27385;51.096;17.190;2023-05-14T00:51:49;100764.22;;;8.21;71.68
41706;BME280;27385;51.096;17.190;2023-05-14T00:54:21;100764.70;;;8.23;71.95
41706;BME280;27385;51.096;17.190;2023-05-14T00:56:52;100761.52;;;8.26;71.94
41706;BME280;27385;51.096;17.190;2023-05-14T00:59:23;100757.50;;;8.30;72.22
41706;BME280;27385;51.096;17.190;2023-05-14T01:01:55;100753.95;;;8.34;72.20
41706;BME280;27385;51.096;17.190;2023-05-14T01:04:26;100755.46;;;8.38;71.98
41706;BME280;27385;51.096;17.190;2023-05-14T01:07:06;100754.30;;;8.43;72.20
41706;BME280;27385;51.096;17.190;2023-05-14T01:09:43;100756.64;;;8.47;72.46
41706;BME280;27385;51.096;17.190;2023-05-14T01:12:20;100752.41;;;8.50;72.39
41706;BME280;27385;51.096;17.190;2023-05-14T01:14:56;100754.43;;;8.53;72.55
41706;BME280;27385;51.096;17.190;2023-05-14T01:17:30;100749.95;;;8.56;72.67
41706;BME280;27385;51.096;17.190;2023-05-14T01:20:02;100751.64;;;8.60;72.89
41706;BME280;27385;51.096;17.190;2023-05-14T01:22:34;100748.71;;;8.61;73.05
41706;BME280;27385;51.096;17.190;2023-05-14T01:25:06;100747.52;;;8.64;73.05
41706;BME280;27385;51.096;17.190;2023-05-14T01:27:41;100742.25;;;8.64;73.23
41706;BME280;27385;51.096;17.190;2023-05-14T01:30:20;100741.27;;;8.67;73.38
41706;BME280;27385;51.096;17.190;2023-05-14T01:32:55;100741.87;;;8.68;73.52
41706;BME280;27385;51.096;17.190;2023-05-14T01:35:29;100741.40;;;8.68;73.37
41706;BME280;27385;51.096;17.190;2023-05-14T01:38:02;100742.33;;;8.67;73.11
41706;BME280;27385;51.096;17.190;2023-05-14T01:40:36;100742.02;;;8.64;72.98
41706;BME280;27385;51.096;17.190;2023-05-14T01:43:07;100743.68;;;8.62;72.84
41706;BME280;27385;51.096;17.190;2023-05-14T01:45:38;100744.52;;;8.59;72.83
41706;BME280;27385;51.096;17.190;2023-05-14T01:48:09;100739.95;;;8.55;72.68
41706;BME280;27385;51.096;17.190;2023-05-14T01:50:40;100737.11;;;8.51;72.65
41706;BME280;27385;51.096;17.190;2023-05-14T01:53:11;100736.96;;;8.48;72.62
41706;BME280;27385;51.096;17.190;2023-05-14T01:55:41;100734.30;;;8.47;72.58
41706;BME280;27385;51.096;17.190;2023-05-14T01:58:12;100728.96;;;8.48;72.55
41706;BME280;27385;51.096;17.190;2023-05-14T02:00:43;100729.54;;;8.47;72.65
41706;BME280;27385;51.096;17.190;2023-05-14T02:03:14;100725.13;;;8.45;72.66
41706;BME280;27385;51.096;17.190;2023-05-14T02:05:45;100728.23;;;8.41;72.74
41706;BME280;27385;51.096;17.190;2023-05-14T02:08:16;100725.02;;;8.38;72.79
41706;BME280;27385;51.096;17.190;2023-05-14T02:10:46;100727.42;;;8.33;72.80
41706;BME280;27385;51.096;17.190;2023-05-14T02:13:18;100730.85;;;8.28;72.79
41706;BME280;27385;51.096;17.190;2023-05-14T02:15:49;100726.94;;;8.23;72.81
41706;BME280;27385;51.096;17.190;2023-05-14T02:18:20;100730.30;;;8.18;72.80
41706;BME280;27385;51.096;17.190;2023-05-14T02:20:51;100724.80;;;8.14;72.81
41706;BME280;27385;51.096;17.190;2023-05-14T02:23:22;100724.58;;;8.09;72.78
41706;BME280;27385;51.096;17.190;2023-05-14T02:25:53;100724.72;;;8.05;72.68
41706;BME280;27385;51.096;17.190;2023-05-14T02:28:24;100723.27;;;8.01;72.77
41706;BME280;27385;51.096;17.190;2023-05-14T02:31:00;100726.80;;;7.98;72.73
41706;BME280;27385;51.096;17.190;2023-05-14T02:33:31;100726.90;;;7.93;72.81
41706;BME280;27385;51.096;17.190;2023-05-14T02:36:02;100728.25;;;7.90;72.70
41706;BME280;27385;51.096;17.190;2023-05-14T02:38:33;100727.08;;;7.90;72.69
41706;BME280;27385;51.096;17.190;2023-05-14T02:41:03;100725.97;;;7.87;72.82
41706;BME280;27385;51.096;17.190;2023-05-14T02:43:34;100720.83;;;7.82;72.88
41706;BME280;27385;51.096;17.190;2023-05-14T02:46:05;100718.23;;;7.79;72.95
41706;BME280;27385;51.096;17.190;2023-05-14T02:48:36;100718.05;;;7.78;73.06
41706;BME280;27385;51.096;17.190;2023-05-14T02:51:07;100717.11;;;7.77;73.24
41706;BME280;27385;51.096;17.190;2023-05-14T02:53:38;100715.29;;;7.77;73.37
41706;BME280;27385;51.096;17.190;2023-05-14T02:56:09;100718.95;;;7.77;73.58
41706;BME280;27385;51.096;17.190;2023-05-14T02:58:40;100714.56;;;7.75;73.66
41706;BME280;27385;51.096;17.190;2023-05-14T03:01:11;100712.22;;;7.76;73.86
41706;BME280;27385;51.096;17.190;2023-05-14T03:03:42;100710.95;;;7.76;73.99
41706;BME280;27385;51.096;17.190;2023-05-14T03:06:12;100713.51;;;7.76;74.06
41706;BME280;27385;51.096;17.190;2023-05-14T03:08:43;100713.77;;;7.75;74.02
41706;BME280;27385;51.096;17.190;2023-05-14T03:11:14;100710.20;;;7.72;74.02
41706;BME280;27385;51.096;17.190;2023-05-14T03:13:45;100710.87;;;7.71;74.03
41706;BME280;27385;51.096;17.190;2023-05-14T03:16:16;100710.27;;;7.70;74.04
41706;BME280;27385;51.096;17.190;2023-05-14T03:18:46;100710.74;;;7.68;73.95
41706;BME280;27385;51.096;17.190;2023-05-14T03:21:17;100709.91;;;7.65;74.09
41706;BME280;27385;51.096;17.190;2023-05-14T03:23:48;100712.52;;;7.60;74.11
41706;BME280;27385;51.096;17.190;2023-05-14T03:26:19;100713.46;;;7.56;74.12
41706;BME280;27385;51.096;17.190;2023-05-14T03:28:51;100717.84;;;7.53;74.25
41706;BME280;27385;51.096;17.190;2023-05-14T03:31:22;100716.27;;;7.50;74.37
41706;BME280;27385;51.096;17.190;2023-05-14T03:33:53;100721.69;;;7.47;74.41
41706;BME280;27385;51.096;17.190;2023-05-14T03:36:24;100725.89;;;7.44;74.46
41706;BME280;27385;51.096;17.190;2023-05-14T03:38:55;100727.05;;;7.43;74.46
41706;BME280;27385;51.096;17.190;2023-05-14T03:41:26;100728.45;;;7.44;74.49
41706;BME280;27385;51.096;17.190;2023-05-14T03:43:57;100722.67;;;7.43;74.54
41706;BME280;27385;51.096;17.190;2023-05-14T03:46:27;100721.14;;;7.44;74.65
41706;BME280;27385;51.096;17.190;2023-05-14T03:48:58;100722.17;;;7.45;74.75
41706;BME280;27385;51.096;17.190;2023-05-14T03:51:29;100723.94;;;7.44;74.86
41706;BME280;27385;51.096;17.190;2023-05-14T03:54:02;100718.59;;;7.45;74.94
41706;BME280;27385;51.096;17.190;2023-05-14T03:56:33;100717.42;;;7.46;75.00
41706;BME280;27385;51.096;17.190;2023-05-14T03:59:03;100718.05;;;7.49;75.21
41706;BME280;27385;51.096;17.190;2023-05-14T04:01:34;100716.13;;;7.52;75.20
41706;BME280;27385;51.096;17.190;2023-05-14T04:04:06;100713.73;;;7.57;75.35
41706;BME280;27385;51.096;17.190;2023-05-14T04:06:36;100712.11;;;7.63;75.68
41706;BME280;27385;51.096;17.190;2023-05-14T04:09:07;100705.54;;;7.67;75.65
41706;BME280;27385;51.096;17.190;2023-05-14T04:11:39;100700.95;;;7.71;75.79
41706;BME280;27385;51.096;17.190;2023-05-14T04:14:10;100702.48;;;7.75;75.78
41706;BME280;27385;51.096;17.190;2023-05-14T04:16:41;100703.46;;;7.81;75.83
41706;BME280;27385;51.096;17.190;2023-05-14T04:19:12;100707.05;;;7.88;75.45
41706;BME280;27385;51.096;17.190;2023-05-14T04:21:42;100704.65;;;7.95;75.58
41706;BME280;27385;51.096;17.190;2023-05-14T04:24:13;100705.17;;;8.03;75.79
41706;BME280;27385;51.096;17.190;2023-05-14T04:26:44;100702.44;;;8.11;76.02
41706;BME280;27385;51.096;17.190;2023-05-14T04:29:15;100703.27;;;8.19;76.24
41706;BME280;27385;51.096;17.190;2023-05-14T04:31:47;100706.42;;;8.26;76.04
41706;BME280;27385;51.096;17.190;2023-05-14T04:34:18;100707.74;;;8.34;75.91
41706;BME280;27385;51.096;17.190;2023-05-14T04:36:49;100714.30;;;8.44;75.96
41706;BME280;27385;51.096;17.190;2023-05-14T04:39:20;100709.09;;;8.54;75.91
41706;BME280;27385;51.096;17.190;2023-05-14T04:41:51;100702.61;;;8.63;76.02
41706;BME280;27385;51.096;17.190;2023-05-14T04:44:22;100694.92;;;8.73;75.96
41706;BME280;27385;51.096;17.190;2023-05-14T04:46:54;100692.55;;;8.85;75.63
41706;BME280;27385;51.096;17.190;2023-05-14T04:49:25;100697.30;;;8.98;75.93
41706;BME280;27385;51.096;17.190;2023-05-14T04:51:56;100692.02;;;9.09;75.91
41706;BME280;27385;51.096;17.190;2023-05-14T04:54:27;100694.95;;;9.21;75.65
41706;BME280;27385;51.096;17.190;2023-05-14T04:56:58;100693.53;;;9.34;75.51
41706;BME280;27385;51.096;17.190;2023-05-14T04:59:31;100690.59;;;9.50;75.28
41706;BME280;27385;51.096;17.190;2023-05-14T05:02:02;100685.55;;;9.64;75.46
41706;BME280;27385;51.096;17.190;2023-05-14T05:04:34;100685.04;;;9.78;75.35
41706;BME280;27385;51.096;17.190;2023-05-14T05:07:06;100680.18;;;9.92;75.19
41706;BME280;27385;51.096;17.190;2023-05-14T05:09:37;100680.64;;;10.05;75.11
41706;BME280;27385;51.096;17.190;2023-05-14T05:12:09;100679.90;;;10.19;75.06
41706;BME280;27385;51.096;17.190;2023-05-14T05:14:40;100684.08;;;10.34;74.52
41706;BME280;27385;51.096;17.190;2023-05-14T05:17:11;100678.38;;;10.49;74.20
41706;BME280;27385;51.096;17.190;2023-05-14T05:19:42;100670.60;;;10.63;73.88
41706;BME280;27385;51.096;17.190;2023-05-14T05:22:14;100670.16;;;10.75;73.68
41706;BME280;27385;51.096;17.190;2023-05-14T05:24:45;100674.84;;;10.88;73.35
41706;BME280;27385;51.096;17.190;2023-05-14T05:27:16;100670.73;;;11.00;73.33
41706;BME280;27385;51.096;17.190;2023-05-14T05:29:46;100670.77;;;11.12;73.12
41706;BME280;27385;51.096;17.190;2023-05-14T05:32:17;100666.77;;;11.24;72.86
41706;BME280;27385;51.096;17.190;2023-05-14T05:34:48;100666.06;;;11.35;72.54
41706;BME280;27385;51.096;17.190;2023-05-14T05:37:20;100666.66;;;11.47;72.55
41706;BME280;27385;51.096;17.190;2023-05-14T05:39:51;100666.66;;;11.58;72.60
41706;BME280;27385;51.096;17.190;2023-05-14T05:42:25;100664.38;;;11.71;72.72
41706;BME280;27385;51.096;17.190;2023-05-14T05:44:57;100663.93;;;11.84;72.41
41706;BME280;27385;51.096;17.190;2023-05-14T05:47:28;100658.28;;;11.96;71.92
41706;BME280;27385;51.096;17.190;2023-05-14T05:49:59;100656.83;;;12.05;71.81
41706;BME280;27385;51.096;17.190;2023-05-14T05:52:30;100661.23;;;12.14;71.69
41706;BME280;27385;51.096;17.190;2023-05-14T05:55:01;100656.27;;;12.24;71.43
41706;BME280;27385;51.096;17.190;2023-05-14T05:57:32;100654.91;;;12.36;71.27
41706;BME280;27385;51.096;17.190;2023-05-14T06:00:06;100654.87;;;12.50;70.90
41706;BME280;27385;51.096;17.190;2023-05-14T06:02:42;100654.98;;;12.62;70.48
41706;BME280;27385;51.096;17.190;2023-05-14T06:05:13;100660.70;;;12.74;70.31
41706;BME280;27385;51.096;17.190;2023-05-14T06:07:44;100662.77;;;12.86;69.96
41706;BME280;27385;51.096;17.190;2023-05-14T06:10:16;100657.89;;;12.96;70.03
41706;BME280;27385;51.096;17.190;2023-05-14T06:12:47;100658.83;;;13.09;69.33
41706;BME280;27385;51.096;17.190;2023-05-14T06:15:17;100653.95;;;13.20;69.05
41706;BME280;27385;51.096;17.190;2023-05-14T06:17:48;100657.67;;;13.30;69.19
41706;BME280;27385;51.096;17.190;2023-05-14T06:20:20;100658.73;;;13.39;68.45
41706;BME280;27385;51.096;17.190;2023-05-14T06:22:51;100654.84;;;13.48;68.80
41706;BME280;27385;51.096;17.190;2023-05-14T06:25:22;100659.49;;;13.58;68.63
41706;BME280;27385;51.096;17.190;2023-05-14T06:27:52;100656.98;;;13.69;68.36
41706;BME280;27385;51.096;17.190;2023-05-14T06:30:23;100659.70;;;13.82;68.13
41706;BME280;27385;51.096;17.190;2023-05-14T06:32:54;100653.20;;;13.93;68.08
41706;BME280;27385;51.096;17.190;2023-05-14T06:35:25;100650.57;;;14.07;67.66
41706;BME280;27385;51.096;17.190;2023-05-14T06:37:56;100649.69;;;14.20;67.47
41706;BME280;27385;51.096;17.190;2023-05-14T06:40:27;100649.02;;;14.35;66.65
41706;BME280;27385;51.096;17.190;2023-05-14T06:42:57;100650.63;;;14.49;66.21
41706;BME280;27385;51.096;17.190;2023-05-14T06:45:28;100650.76;;;14.63;66.16
41706;BME280;27385;51.096;17.190;2023-05-14T06:47:59;100647.55;;;14.78;66.03
41706;BME280;27385;51.096;17.190;2023-05-14T06:50:30;100640.78;;;14.91;65.18
41706;BME280;27385;51.096;17.190;2023-05-14T06:53:01;100642.83;;;15.05;65.11
41706;BME280;27385;51.096;17.190;2023-05-14T06:55:32;100640.81;;;15.18;65.21
41706;BME280;27385;51.096;17.190;2023-05-14T06:58:04;100633.22;;;15.31;64.96
41706;BME280;27385;51.096;17.190;2023-05-14T07:00:35;100622.63;;;15.44;64.03
41706;BME280;27385;51.096;17.190;2023-05-14T07:03:06;100618.50;;;15.55;63.25
41706;BME280;27385;51.096;17.190;2023-05-14T07:05:37;100611.45;;;15.68;62.94
41706;BME280;27385;51.096;17.190;2023-05-14T07:08:09;100606.00;;;15.77;62.19
41706;BME280;27385;51.096;17.190;2023-05-14T07:10:40;100607.63;;;15.83;61.75
41706;BME280;27385;51.096;17.190;2023-05-14T07:13:11;100605.49;;;15.92;61.15
41706;BME280;27385;51.096;17.190;2023-05-14T07:15:42;100603.88;;;16.00;61.23
41706;BME280;27385;51.096;17.190;2023-05-14T07:18:13;100598.28;;;16.11;60.53
41706;BME280;27385;51.096;17.190;2023-05-14T07:20:44;100597.67;;;16.18;59.54
41706;BME280;27385;51.096;17.190;2023-05-14T07:23:15;100600.46;;;16.27;59.60
41706;BME280;27385;51.096;17.190;2023-05-14T07:25:46;100596.92;;;16.35;58.88
41706;BME280;27385;51.096;17.190;2023-05-14T07:28:16;100598.38;;;16.44;58.72
41706;BME280;27385;51.096;17.190;2023-05-14T07:30:47;100594.63;;;16.50;57.80
41706;BME280;27385;51.096;17.190;2023-05-14T07:33:18;100596.46;;;16.50;57.75
41706;BME280;27385;51.096;17.190;2023-05-14T07:35:50;100596.98;;;16.52;57.14
41706;BME280;27385;51.096;17.190;2023-05-14T07:38:21;100594.83;;;16.56;57.33
41706;BME280;27385;51.096;17.190;2023-05-14T07:40:52;100590.79;;;16.62;57.20
41706;BME280;27385;51.096;17.190;2023-05-14T07:43:23;100592.47;;;16.66;56.13
41706;BME280;27385;51.096;17.190;2023-05-14T07:45:54;100588.42;;;16.65;55.81
41706;BME280;27385;51.096;17.190;2023-05-14T07:48:25;100593.40;;;16.66;55.76
41706;BME280;27385;51.096;17.190;2023-05-14T07:50:56;100585.50;;;16.73;55.64
41706;BME280;27385;51.096;17.190;2023-05-14T07:53:27;100586.27;;;16.81;55.36
41706;BME280;27385;51.096;17.190;2023-05-14T07:55:58;100582.91;;;16.89;54.62
41706;BME280;27385;51.096;17.190;2023-05-14T07:58:29;100580.50;;;16.97;54.46
41706;BME280;27385;51.096;17.190;2023-05-14T08:01:00;100581.52;;;17.04;54.72
41706;BME280;27385;51.096;17.190;2023-05-14T08:03:35;100584.52;;;17.13;54.14
41706;BME280;27385;51.096;17.190;2023-05-14T08:06:06;100573.23;;;17.17;53.37
41706;BME280;27385;51.096;17.190;2023-05-14T08:08:38;100573.59;;;17.16;52.90
41706;BME280;27385;51.096;17.190;2023-05-14T08:11:09;100574.21;;;17.15;52.87
41706;BME280;27385;51.096;17.190;2023-05-14T08:13:40;100573.33;;;17.19;53.19
41706;BME280;27385;51.096;17.190;2023-05-14T08:16:11;100566.12;;;17.28;53.03
41706;BME280;27385;51.096;17.190;2023-05-14T08:18:41;100559.48;;;17.32;52.40
41706;BME280;27385;51.096;17.190;2023-05-14T08:21:12;100565.59;;;17.36;51.54
41706;BME280;27385;51.096;17.190;2023-05-14T08:23:43;100566.20;;;17.37;51.54
41706;BME280;27385;51.096;17.190;2023-05-14T08:26:14;100563.05;;;17.40;51.53
41706;BME280;27385;51.096;17.190;2023-05-14T08:28:45;100560.20;;;17.45;51.18
41706;BME280;27385;51.096;17.190;2023-05-14T08:31:15;100558.73;;;17.50;51.07
41706;BME280;27385;51.096;17.190;2023-05-14T08:33:46;100556.54;;;17.58;50.85
41706;BME280;27385;51.096;17.190;2023-05-14T08:36:17;100560.33;;;17.69;50.85
41706;BME280;27385;51.096;17.190;2023-05-14T08:38:48;100558.02;;;17.81;50.61
41706;BME280;27385;51.096;17.190;2023-05-14T08:41:19;100550.71;;;17.92;50.24
41706;BME280;27385;51.096;17.190;2023-05-14T08:43:58;100545.72;;;18.03;49.95
41706;BME280;27385;51.096;17.190;2023-05-14T08:46:34;100544.13;;;18.10;50.02
41706;BME280;27385;51.096;17.190;2023-05-14T08:49:13;100540.56;;;18.19;49.31
41706;BME280;27385;51.096;17.190;2023-05-14T08:51:46;100540.52;;;18.25;49.46
41706;BME280;27385;51.096;17.190;2023-05-14T08:54:17;100536.67;;;18.32;49.40
41706;BME280;27385;51.096;17.190;2023-05-14T08:56:51;100535.85;;;18.39;49.25
41706;BME280;27385;51.096;17.190;2023-05-14T08:59:23;100536.02;;;18.47;49.18
41706;BME280;27385;51.096;17.190;2023-05-14T09:01:55;100531.44;;;18.60;48.96
41706;BME280;27385;51.096;17.190;2023-05-14T09:04:28;100530.74;;;18.72;48.31
41706;BME280;27385;51.096;17.190;2023-05-14T09:07:01;100523.40;;;18.83;47.92
41706;BME280;27385;51.096;17.190;2023-05-14T09:09:32;100521.13;;;18.94;48.06
41706;BME280;27385;51.096;17.190;2023-05-14T09:12:05;100516.75;;;19.03;47.97
41706;BME280;27385;51.096;17.190;2023-05-14T09:14:36;100516.35;;;19.11;47.47
41706;BME280;27385;51.096;17.190;2023-05-14T09:17:07;100519.65;;;19.20;47.55
41706;BME280;27385;51.096;17.190;2023-05-14T09:19:41;100513.81;;;19.30;47.25
41706;BME280;27385;51.096;17.190;2023-05-14T09:22:14;100512.89;;;19.37;47.04
41706;BME280;27385;51.096;17.190;2023-05-14T09:24:46;100508.77;;;19.31;46.47
41706;BME280;27385;51.096;17.190;2023-05-14T09:27:32;100504.93;;;19.23;46.58
41706;BME280;27385;51.096;17.190;2023-05-14T09:30:12;100503.30;;;19.19;46.44
41706;BME280;27385;51.096;17.190;2023-05-14T09:32:44;100502.70;;;19.13;46.11
41706;BME280;27385;51.096;17.190;2023-05-14T09:35:18;100498.34;;;19.07;46.15
41706;BME280;27385;51.096;17.190;2023-05-14T09:37:51;100493.39;;;19.03;45.82
41706;BME280;27385;51.096;17.190;2023-05-14T09:40:23;100479.10;;;19.07;46.18
41706;BME280;27385;51.096;17.190;2023-05-14T09:42:54;100478.84;;;19.20;45.90
41706;BME280;27385;51.096;17.190;2023-05-14T09:45:25;100476.36;;;19.28;45.13
41706;BME280;27385;51.096;17.190;2023-05-14T09:47:59;100473.11;;;19.28;44.71
41706;BME280;27385;51.096;17.190;2023-05-14T09:50:30;100469.84;;;19.27;44.41
41706;BME280;27385;51.096;17.190;2023-05-14T09:53:02;100461.52;;;19.26;44.59
41706;BME280;27385;51.096;17.190;2023-05-14T09:55:33;100458.39;;;19.29;44.19
41706;BME280;27385;51.096;17.190;2023-05-14T09:58:05;100461.23;;;19.27;43.56
41706;BME280;27385;51.096;17.190;2023-05-14T10:00:36;100459.39;;;19.18;43.71
41706;BME280;27385;51.096;17.190;2023-05-14T10:03:08;100461.56;;;19.23;43.99
41706;BME280;27385;51.096;17.190;2023-05-14T10:05:42;100455.36;;;19.34;43.92
41706;BME280;27385;51.096;17.190;2023-05-14T10:08:20;100450.60;;;19.48;43.76
41706;BME280;27385;51.096;17.190;2023-05-14T10:10:53;100446.45;;;19.58;43.55
41706;BME280;27385;51.096;17.190;2023-05-14T10:13:29;100442.61;;;19.66;43.49
41706;BME280;27385;51.096;17.190;2023-05-14T10:16:06;100436.48;;;19.77;43.23
41706;BME280;27385;51.096;17.190;2023-05-14T10:18:42;100439.66;;;19.81;43.37
41706;BME280;27385;51.096;17.190;2023-05-14T10:21:15;100445.72;;;19.89;42.97
41706;BME280;27385;51.096;17.190;2023-05-14T10:23:50;100442.48;;;19.94;42.86
41706;BME280;27385;51.096;17.190;2023-05-14T10:26:22;100444.09;;;19.93;42.58
41706;BME280;27385;51.096;17.190;2023-05-14T10:28:53;100436.33;;;19.87;42.53
41706;BME280;27385;51.096;17.190;2023-05-14T10:31:46;100437.45;;;19.83;42.70
41706;BME280;27385;51.096;17.190;2023-05-14T10:34:39;100432.30;;;19.82;42.55
41706;BME280;27385;51.096;17.190;2023-05-14T10:37:14;100424.27;;;19.77;42.27
41706;BME280;27385;51.096;17.190;2023-05-14T10:39:48;100418.10;;;19.70;42.44
41706;BME280;27385;51.096;17.190;2023-05-14T10:42:20;100413.38;;;19.66;42.22
41706;BME280;27385;51.096;17.190;2023-05-14T10:44:54;100408.69;;;19.62;42.09
41706;BME280;27385;51.096;17.190;2023-05-14T10:47:28;100411.27;;;19.58;42.47
41706;BME280;27385;51.096;17.190;2023-05-14T10:50:01;100403.89;;;19.63;42.51
41706;BME280;27385;51.096;17.190;2023-05-14T10:52:33;100403.52;;;19.70;42.04
41706;BME280;27385;51.096;17.190;2023-05-14T10:55:06;100403.52;;;19.74;41.90
41706;BME280;27385;51.096;17.190;2023-05-14T10:57:39;100399.77;;;19.79;41.90
41706;BME280;27385;51.096;17.190;2023-05-14T11:00:15;100398.66;;;19.87;42.13
41706;BME280;27385;51.096;17.190;2023-05-14T11:02:46;100397.53;;;19.93;41.94
41706;BME280;27385;51.096;17.190;2023-05-14T11:05:17;100397.84;;;19.99;41.66
41706;BME280;27385;51.096;17.190;2023-05-14T11:07:49;100392.21;;;20.03;41.34
41706;BME280;27385;51.096;17.190;2023-05-14T11:10:21;100389.90;;;20.05;41.10
41706;BME280;27385;51.096;17.190;2023-05-14T11:12:54;100384.05;;;20.07;41.19
41706;BME280;27385;51.096;17.190;2023-05-14T11:15:26;100384.00;;;20.16;41.42
41706;BME280;27385;51.096;17.190;2023-05-14T11:17:57;100381.61;;;20.30;41.56
41706;BME280;27385;51.096;17.190;2023-05-14T11:20:29;100381.10;;;20.49;41.49
41706;BME280;27385;51.096;17.190;2023-05-14T11:23:01;100375.54;;;20.64;41.29
41706;BME280;27385;51.096;17.190;2023-05-14T11:25:32;100375.11;;;20.79;41.43
41706;BME280;27385;51.096;17.190;2023-05-14T11:28:03;100376.86;;;20.92;40.94
41706;BME280;27385;51.096;17.190;2023-05-14T11:30:35;100376.49;;;20.98;40.88
41706;BME280;27385;51.096;17.190;2023-05-14T11:33:07;100372.56;;;21.02;40.09
41706;BME280;27385;51.096;17.190;2023-05-14T11:35:47;100368.70;;;20.91;39.62
41706;BME280;27385;51.096;17.190;2023-05-14T11:38:19;100366.50;;;20.87;40.17
41706;BME280;27385;51.096;17.190;2023-05-14T11:40:54;100364.96;;;20.96;40.45
41706;BME280;27385;51.096;17.190;2023-05-14T11:43:25;100362.18;;;21.07;40.17
41706;BME280;27385;51.096;17.190;2023-05-14T11:45:58;100363.75;;;21.16;39.97
41706;BME280;27385;51.096;17.190;2023-05-14T11:48:30;100355.55;;;21.11;39.51
41706;BME280;27385;51.096;17.190;2023-05-14T11:51:03;100353.18;;;21.09;39.76
41706;BME280;27385;51.096;17.190;2023-05-14T11:53:34;100352.59;;;21.10;39.68
41706;BME280;27385;51.096;17.190;2023-05-14T11:56:06;100357.73;;;21.10;39.33
41706;BME280;27385;51.096;17.190;2023-05-14T11:58:38;100351.60;;;21.07;38.91
41706;BME280;27385;51.096;17.190;2023-05-14T12:01:13;100353.39;;;21.04;39.12
41706;BME280;27385;51.096;17.190;2023-05-14T12:03:45;100348.91;;;21.06;39.30
41706;BME280;27385;51.096;17.190;2023-05-14T12:06:16;100347.73;;;21.05;39.17
41706;BME280;27385;51.096;17.190;2023-05-14T12:08:48;100344.43;;;21.05;39.05
41706;BME280;27385;51.096;17.190;2023-05-14T12:11:21;100336.86;;;21.08;38.56
41706;BME280;27385;51.096;17.190;2023-05-14T12:13:53;100339.13;;;21.14;38.83
41706;BME280;27385;51.096;17.190;2023-05-14T12:16:28;100336.45;;;21.18;38.66
41706;BME280;27385;51.096;17.190;2023-05-14T12:19:02;100339.05;;;21.21;38.69
41706;BME280;27385;51.096;17.190;2023-05-14T12:21:35;100334.48;;;21.25;39.15
41706;BME280;27385;51.096;17.190;2023-05-14T12:24:09;100331.29;;;21.23;39.14
41706;BME280;27385;51.096;17.190;2023-05-14T12:26:44;100324.54;;;21.19;39.02
41706;BME280;27385;51.096;17.190;2023-05-14T12:29:17;100325.14;;;21.18;39.22
41706;BME280;27385;51.096;17.190;2023-05-14T12:31:50;100328.80;;;21.18;39.39
41706;BME280;27385;51.096;17.190;2023-05-14T12:34:21;100324.05;;;21.19;39.33
41706;BME280;27385;51.096;17.190;2023-05-14T12:36:53;100320.94;;;21.21;39.38
41706;BME280;27385;51.096;17.190;2023-05-14T12:39:24;100321.77;;;21.25;39.25
41706;BME280;27385;51.096;17.190;2023-05-14T12:41:55;100318.33;;;21.27;39.10
41706;BME280;27385;51.096;17.190;2023-05-14T12:44:26;100315.59;;;21.25;39.23
41706;BME280;27385;51.096;17.190;2023-05-14T12:46:57;100313.84;;;21.24;38.86
41706;BME280;27385;51.096;17.190;2023-05-14T12:49:27;100315.36;;;21.24;39.38
41706;BME280;27385;51.096;17.190;2023-05-14T12:51:58;100315.09;;;21.28;39.28
41706;BME280;27385;51.096;17.190;2023-05-14T12:54:30;100317.20;;;21.30;39.11
41706;BME280;27385;51.096;17.190;2023-05-14T12:57:01;100310.81;;;21.32;39.02
41706;BME280;27385;51.096;17.190;2023-05-14T12:59:33;100311.08;;;21.34;39.04
41706;BME280;27385;51.096;17.190;2023-05-14T13:02:04;100305.59;;;21.39;38.86
41706;BME280;27385;51.096;17.190;2023-05-14T13:04:35;100307.61;;;21.39;38.77
41706;BME280;27385;51.096;17.190;2023-05-14T13:07:07;100305.39;;;21.44;38.95